sensor_id;sensor_type;location;lat;lon;timestamp;P1;durP1;ratioP1;P2;durP2;ratioP2
20012;SDS011;76844;42.852;23.042;2024-03-25T00:02:11;1.63;;;0.90;;
20012;SDS011;76844;42.852;23.042;2024-03-25T00:04:39;2.03;;;1.00;;
20012;SDS011;76844;42.852;23.042;2024-03-25T00:07:06;2.38;;;0.88;;
20012;SDS011;76844;42.852;23.042;2024-03-25T00:09:34;1.80;;;1.10;;
20012;SDS011;76844;42.852;23.042;2024-03-25T00:12:01;3.85;;;1.30;;
20012;SDS011;76844;42.852;23.042;2024-03-25T00:14:30;2.53;;;1.67;;
20012;SDS011;76844;42.852;23.042;2024-03-25T00:17:00;2.47;;;1.55;;
20012;SDS011;76844;42.852;23.042;2024-03-25T00:19:27;4.65;;;2.50;;
20012;SDS011;76844;42.852;23.042;2024-03-25T00:21:57;4.05;;;2.40;;
20012;SDS011;76844;42.852;23.042;2024-03-25T00:24:24;3.20;;;1.83;;
20012;SDS011;76844;42.852;23.042;2024-03-25T00:26:53;2.60;;;1.48;;
20012;SDS011;76844;42.852;23.042;2024-03-25T00:29:20;2.67;;;1.42;;
20012;SDS011;76844;42.852;23.042;2024-03-25T00:31:48;2.45;;;1.50;;
20012;SDS011;76844;42.852;23.042;2024-03-25T00:34:17;2.67;;;1.48;;
20012;SDS011;76844;42.852;23.042;2024-03-25T00:36:45;3.25;;;1.40;;
20012;SDS011;76844;42.852;23.042;2024-03-25T00:39:12;2.05;;;1.25;;
20012;SDS011;76844;42.852;23.042;2024-03-25T00:41:40;1.45;;;1.20;;
20012;SDS011;76844;42.852;23.042;2024-03-25T00:44:07;1.45;;;0.98;;
20012;SDS011;76844;42.852;23.042;2024-03-25T00:46:36;2.35;;;1.00;;
20012;SDS011;76844;42.852;23.042;2024-03-25T00:49:04;1.65;;;1.10;;
20012;SDS011;76844;42.852;23.042;2024-03-25T00:51:33;2.03;;;1.10;;
20012;SDS011;76844;42.852;23.042;2024-03-25T00:54:00;2.17;;;1.33;;
20012;SDS011;76844;42.852;23.042;2024-03-25T00:56:29;1.05;;;0.93;;
20012;SDS011;76844;42.852;23.042;2024-03-25T00:58:56;1.48;;;0.98;;
20012;SDS011;76844;42.852;23.042;2024-03-25T01:01:29;2.63;;;1.50;;
20012;SDS011;76844;42.852;23.042;2024-03-25T01:03:56;1.10;;;0.77;;
20012;SDS011;76844;42.852;23.042;2024-03-25T01:06:24;1.35;;;0.90;;
20012;SDS011;76844;42.852;23.042;2024-03-25T01:08:53;1.40;;;1.00;;
20012;SDS011;76844;42.852;23.042;2024-03-25T01:11:21;1.13;;;1.00;;
20012;SDS011;76844;42.852;23.042;2024-03-25T01:13:48;2.38;;;1.20;;
20012;SDS011;76844;42.852;23.042;2024-03-25T01:16:17;1.20;;;0.70;;
20012;SDS011;76844;42.852;23.042;2024-03-25T01:18:44;3.90;;;1.80;;
20012;SDS011;76844;42.852;23.042;2024-03-25T01:21:12;3.90;;;2.17;;
20012;SDS011;76844;42.852;23.042;2024-03-25T01:23:39;3.72;;;2.97;;
20012;SDS011;76844;42.852;23.042;2024-03-25T01:26:09;1.55;;;1.08;;
20012;SDS011;76844;42.852;23.042;2024-03-25T01:28:36;6.90;;;2.85;;
20012;SDS011;76844;42.852;23.042;2024-03-25T01:31:04;2.80;;;1.70;;
20012;SDS011;76844;42.852;23.042;2024-03-25T01:33:31;1.77;;;1.10;;
20012;SDS011;76844;42.852;23.042;2024-03-25T01:36:00;2.35;;;0.80;;
20012;SDS011;76844;42.852;23.042;2024-03-25T01:38:28;1.00;;;0.70;;
20012;SDS011;76844;42.852;23.042;2024-03-25T01:41:06;2.65;;;0.70;;
20012;SDS011;76844;42.852;23.042;2024-03-25T01:43:35;1.02;;;0.60;;
20012;SDS011;76844;42.852;23.042;2024-03-25T01:46:04;1.50;;;0.80;;
20012;SDS011;76844;42.852;23.042;2024-03-25T01:48:31;0.70;;;0.70;;
20012;SDS011;76844;42.852;23.042;2024-03-25T01:51:00;0.75;;;0.60;;
20012;SDS011;76844;42.852;23.042;2024-03-25T01:53:29;0.88;;;0.70;;
20012;SDS011;76844;42.852;23.042;2024-03-25T01:55:58;3.72;;;0.50;;
20012;SDS011;76844;42.852;23.042;2024-03-25T01:58:27;1.98;;;0.73;;
20012;SDS011;76844;42.852;23.042;2024-03-25T02:00:56;1.48;;;0.70;;
20012;SDS011;76844;42.852;23.042;2024-03-25T02:03:27;1.88;;;0.70;;
20012;SDS011;76844;42.852;23.042;2024-03-25T02:05:57;2.03;;;0.88;;
20012;SDS011;76844;42.852;23.042;2024-03-25T02:08:27;2.28;;;1.00;;
20012;SDS011;76844;42.852;23.042;2024-03-25T02:10:57;2.15;;;1.10;;
20012;SDS011;76844;42.852;23.042;2024-03-25T02:13:25;3.90;;;1.30;;
20012;SDS011;76844;42.852;23.042;2024-03-25T02:15:55;2.28;;;1.02;;
20012;SDS011;76844;42.852;23.042;2024-03-25T02:18:22;6.32;;;1.45;;
20012;SDS011;76844;42.852;23.042;2024-03-25T02:20:51;4.18;;;1.23;;
20012;SDS011;76844;42.852;23.042;2024-03-25T02:23:18;3.45;;;1.33;;
20012;SDS011;76844;42.852;23.042;2024-03-25T02:25:50;1.50;;;1.15;;
20012;SDS011;76844;42.852;23.042;2024-03-25T02:28:17;2.83;;;1.00;;
20012;SDS011;76844;42.852;23.042;2024-03-25T02:30:46;1.90;;;1.20;;
20012;SDS011;76844;42.852;23.042;2024-03-25T02:33:13;0.90;;;0.90;;
20012;SDS011;76844;42.852;23.042;2024-03-25T02:35:41;1.65;;;1.30;;
20012;SDS011;76844;42.852;23.042;2024-03-25T02:38:10;1.05;;;1.00;;
20012;SDS011;76844;42.852;23.042;2024-03-25T02:40:39;1.40;;;1.30;;
20012;SDS011;76844;42.852;23.042;2024-03-25T02:43:08;1.13;;;1.02;;
20012;SDS011;76844;42.852;23.042;2024-03-25T02:45:37;1.95;;;1.42;;
20012;SDS011;76844;42.852;23.042;2024-03-25T02:48:04;2.72;;;1.60;;
20012;SDS011;76844;42.852;23.042;2024-03-25T02:50:33;1.83;;;1.58;;
20012;SDS011;76844;42.852;23.042;2024-03-25T02:53:00;2.63;;;2.03;;
20012;SDS011;76844;42.852;23.042;2024-03-25T02:55:28;2.40;;;2.20;;
20012;SDS011;76844;42.852;23.042;2024-03-25T02:57:56;2.53;;;2.33;;
20012;SDS011;76844;42.852;23.042;2024-03-25T03:00:25;4.03;;;2.75;;
20012;SDS011;76844;42.852;23.042;2024-03-25T03:02:53;4.85;;;3.40;;
20012;SDS011;76844;42.852;23.042;2024-03-25T03:05:21;3.90;;;3.30;;
20012;SDS011;76844;42.852;23.042;2024-03-25T03:07:48;3.33;;;2.92;;
20012;SDS011;76844;42.852;23.042;2024-03-25T03:10:16;5.57;;;4.10;;
20012;SDS011;76844;42.852;23.042;2024-03-25T03:12:44;5.97;;;3.90;;
20012;SDS011;76844;42.852;23.042;2024-03-25T03:15:12;5.75;;;4.22;;
20012;SDS011;76844;42.852;23.042;2024-03-25T03:17:42;5.57;;;3.92;;
20012;SDS011;76844;42.852;23.042;2024-03-25T03:20:11;5.95;;;4.50;;
20012;SDS011;76844;42.852;23.042;2024-03-25T03:22:39;7.65;;;5.03;;
20012;SDS011;76844;42.852;23.042;2024-03-25T03:25:07;6.75;;;5.00;;
20012;SDS011;76844;42.852;23.042;2024-03-25T03:27:34;7.60;;;5.50;;
20012;SDS011;76844;42.852;23.042;2024-03-25T03:30:03;7.53;;;4.78;;
20012;SDS011;76844;42.852;23.042;2024-03-25T03:32:31;8.15;;;6.00;;
20012;SDS011;76844;42.852;23.042;2024-03-25T03:35:00;8.32;;;5.97;;
20012;SDS011;76844;42.852;23.042;2024-03-25T03:37:29;11.23;;;6.50;;
20012;SDS011;76844;42.852;23.042;2024-03-25T03:39:57;8.52;;;6.70;;
20012;SDS011;76844;42.852;23.042;2024-03-25T03:42:25;10.38;;;7.32;;
20012;SDS011;76844;42.852;23.042;2024-03-25T03:44:53;10.15;;;7.30;;
20012;SDS011;76844;42.852;23.042;2024-03-25T03:47:20;10.23;;;7.32;;
20012;SDS011;76844;42.852;23.042;2024-03-25T03:49:48;10.43;;;7.40;;
20012;SDS011;76844;42.852;23.042;2024-03-25T03:52:17;9.82;;;6.53;;
20012;SDS011;76844;42.852;23.042;2024-03-25T03:54:45;11.65;;;7.43;;
20012;SDS011;76844;42.852;23.042;2024-03-25T03:57:12;11.77;;;7.47;;
20012;SDS011;76844;42.852;23.042;2024-03-25T03:59:41;9.73;;;6.90;;
20012;SDS011;76844;42.852;23.042;2024-03-25T04:02:08;13.10;;;8.23;;
20012;SDS011;76844;42.852;23.042;2024-03-25T04:04:36;12.60;;;8.02;;
20012;SDS011;76844;42.852;23.042;2024-03-25T04:07:03;14.50;;;9.15;;
20012;SDS011;76844;42.852;23.042;2024-03-25T04:09:33;13.23;;;9.40;;
20012;SDS011;76844;42.852;23.042;2024-03-25T04:12:00;14.60;;;9.70;;
20012;SDS011;76844;42.852;23.042;2024-03-25T04:14:28;13.07;;;9.18;;
20012;SDS011;76844;42.852;23.042;2024-03-25T04:16:55;12.73;;;8.90;;
20012;SDS011;76844;42.852;23.042;2024-03-25T04:19:25;14.02;;;9.77;;
20012;SDS011;76844;42.852;23.042;2024-03-25T04:21:53;15.55;;;10.07;;
20012;SDS011;76844;42.852;23.042;2024-03-25T04:24:22;15.93;;;10.60;;
20012;SDS011;76844;42.852;23.042;2024-03-25T04:26:51;16.30;;;11.05;;
20012;SDS011;76844;42.852;23.042;2024-03-25T04:29:19;15.30;;;9.88;;
20012;SDS011;76844;42.852;23.042;2024-03-25T04:31:46;13.27;;;9.35;;
20012;SDS011;76844;42.852;23.042;2024-03-25T04:34:15;13.73;;;9.05;;
20012;SDS011;76844;42.852;23.042;2024-03-25T04:36:43;15.07;;;9.90;;
20012;SDS011;76844;42.852;23.042;2024-03-25T04:39:11;15.45;;;10.35;;
20012;SDS011;76844;42.852;23.042;2024-03-25T04:41:38;13.65;;;9.85;;
20012;SDS011;76844;42.852;23.042;2024-03-25T04:44:07;14.18;;;9.98;;
20012;SDS011;76844;42.852;23.042;2024-03-25T04:46:34;14.75;;;9.30;;
20012;SDS011;76844;42.852;23.042;2024-03-25T04:49:01;15.25;;;10.00;;
20012;SDS011;76844;42.852;23.042;2024-03-25T04:51:29;14.68;;;10.48;;
20012;SDS011;76844;42.852;23.042;2024-03-25T04:53:56;14.77;;;10.07;;
20012;SDS011;76844;42.852;23.042;2024-03-25T04:56:23;14.25;;;10.73;;
20012;SDS011;76844;42.852;23.042;2024-03-25T04:58:51;14.45;;;9.88;;
20012;SDS011;76844;42.852;23.042;2024-03-25T05:01:20;13.18;;;9.90;;
20012;SDS011;76844;42.852;23.042;2024-03-25T05:03:48;15.32;;;10.63;;
20012;SDS011;76844;42.852;23.042;2024-03-25T05:06:15;15.23;;;10.75;;
20012;SDS011;76844;42.852;23.042;2024-03-25T05:08:42;15.95;;;10.90;;
20012;SDS011;76844;42.852;23.042;2024-03-25T05:11:14;17.30;;;11.93;;
20012;SDS011;76844;42.852;23.042;2024-03-25T05:13:41;15.82;;;10.55;;
20012;SDS011;76844;42.852;23.042;2024-03-25T05:16:08;16.58;;;11.18;;
20012;SDS011;76844;42.852;23.042;2024-03-25T05:18:37;18.27;;;11.45;;
20012;SDS011;76844;42.852;23.042;2024-03-25T05:21:04;16.92;;;11.02;;
20012;SDS011;76844;42.852;23.042;2024-03-25T05:23:31;16.35;;;10.77;;
20012;SDS011;76844;42.852;23.042;2024-03-25T05:26:03;16.52;;;11.68;;
20012;SDS011;76844;42.852;23.042;2024-03-25T05:28:31;16.10;;;11.32;;
20012;SDS011;76844;42.852;23.042;2024-03-25T05:31:04;17.67;;;12.70;;
20012;SDS011;76844;42.852;23.042;2024-03-25T05:33:32;18.90;;;12.57;;
20012;SDS011;76844;42.852;23.042;2024-03-25T05:36:00;18.85;;;13.07;;
20012;SDS011;76844;42.852;23.042;2024-03-25T05:38:28;18.38;;;13.20;;
20012;SDS011;76844;42.852;23.042;2024-03-25T05:40:56;19.80;;;13.35;;
20012;SDS011;76844;42.852;23.042;2024-03-25T05:43:23;19.05;;;13.45;;
20012;SDS011;76844;42.852;23.042;2024-03-25T05:45:50;19.08;;;13.85;;
20012;SDS011;76844;42.852;23.042;2024-03-25T05:48:18;19.45;;;13.13;;
20012;SDS011;76844;42.852;23.042;2024-03-25T05:50:45;15.93;;;11.80;;
20012;SDS011;76844;42.852;23.042;2024-03-25T05:53:13;16.63;;;12.48;;
20012;SDS011;76844;42.852;23.042;2024-03-25T05:55:41;15.85;;;11.70;;
20012;SDS011;76844;42.852;23.042;2024-03-25T05:58:09;17.63;;;13.00;;
20012;SDS011;76844;42.852;23.042;2024-03-25T06:00:36;17.23;;;13.25;;
20012;SDS011;76844;42.852;23.042;2024-03-25T06:03:04;15.90;;;12.52;;
20012;SDS011;76844;42.852;23.042;2024-03-25T06:05:31;16.17;;;12.52;;
20012;SDS011;76844;42.852;23.042;2024-03-25T06:07:58;17.25;;;12.50;;
20012;SDS011;76844;42.852;23.042;2024-03-25T06:10:27;19.70;;;13.13;;
20012;SDS011;76844;42.852;23.042;2024-03-25T06:12:54;16.17;;;12.52;;
20012;SDS011;76844;42.852;23.042;2024-03-25T06:15:21;15.40;;;11.77;;
20012;SDS011;76844;42.852;23.042;2024-03-25T06:17:48;16.00;;;11.70;;
20012;SDS011;76844;42.852;23.042;2024-03-25T06:20:15;16.17;;;12.60;;
20012;SDS011;76844;42.852;23.042;2024-03-25T06:22:42;19.10;;;13.50;;
20012;SDS011;76844;42.852;23.042;2024-03-25T06:25:09;18.70;;;12.65;;
20012;SDS011;76844;42.852;23.042;2024-03-25T06:27:38;14.57;;;11.27;;
20012;SDS011;76844;42.852;23.042;2024-03-25T06:30:09;15.13;;;11.35;;
20012;SDS011;76844;42.852;23.042;2024-03-25T06:32:56;13.45;;;11.13;;
20012;SDS011;76844;42.852;23.042;2024-03-25T06:35:42;17.50;;;12.00;;
20012;SDS011;76844;42.852;23.042;2024-03-25T06:38:09;14.98;;;11.73;;
20012;SDS011;76844;42.852;23.042;2024-03-25T06:40:38;13.95;;;12.05;;
20012;SDS011;76844;42.852;23.042;2024-03-25T06:43:10;17.48;;;12.88;;
20012;SDS011;76844;42.852;23.042;2024-03-25T06:45:38;14.23;;;10.98;;
20012;SDS011;76844;42.852;23.042;2024-03-25T06:48:05;17.77;;;13.00;;
20012;SDS011;76844;42.852;23.042;2024-03-25T06:50:33;17.13;;;12.50;;
20012;SDS011;76844;42.852;23.042;2024-03-25T06:53:00;17.05;;;12.88;;
20012;SDS011;76844;42.852;23.042;2024-03-25T06:55:27;20.85;;;13.63;;
20012;SDS011;76844;42.852;23.042;2024-03-25T06:57:54;20.40;;;13.82;;
20012;SDS011;76844;42.852;23.042;2024-03-25T07:00:23;22.35;;;14.32;;
20012;SDS011;76844;42.852;23.042;2024-03-25T07:02:50;20.13;;;12.63;;
20012;SDS011;76844;42.852;23.042;2024-03-25T07:05:17;17.10;;;11.82;;
20012;SDS011;76844;42.852;23.042;2024-03-25T07:07:44;16.17;;;11.98;;
20012;SDS011;76844;42.852;23.042;2024-03-25T07:10:11;13.10;;;11.25;;
20012;SDS011;76844;42.852;23.042;2024-03-25T07:12:39;15.93;;;11.45;;
20012;SDS011;76844;42.852;23.042;2024-03-25T07:15:09;14.65;;;11.18;;
20012;SDS011;76844;42.852;23.042;2024-03-25T07:17:38;15.40;;;11.75;;
20012;SDS011;76844;42.852;23.042;2024-03-25T07:20:06;12.85;;;10.10;;
20012;SDS011;76844;42.852;23.042;2024-03-25T07:22:34;14.55;;;10.95;;
20012;SDS011;76844;42.852;23.042;2024-03-25T07:25:07;15.35;;;9.85;;
20012;SDS011;76844;42.852;23.042;2024-03-25T07:27:36;14.73;;;9.70;;
20012;SDS011;76844;42.852;23.042;2024-03-25T07:30:04;13.13;;;10.48;;
20012;SDS011;76844;42.852;23.042;2024-03-25T07:32:32;15.48;;;10.52;;
20012;SDS011;76844;42.852;23.042;2024-03-25T07:35:00;12.27;;;10.27;;
20012;SDS011;76844;42.852;23.042;2024-03-25T07:37:30;12.55;;;9.43;;
20012;SDS011;76844;42.852;23.042;2024-03-25T07:39:57;12.32;;;9.98;;
20012;SDS011;76844;42.852;23.042;2024-03-25T07:42:24;13.75;;;9.98;;
20012;SDS011;76844;42.852;23.042;2024-03-25T07:44:51;13.85;;;11.52;;
20012;SDS011;76844;42.852;23.042;2024-03-25T07:47:18;17.17;;;15.18;;
20012;SDS011;76844;42.852;23.042;2024-03-25T07:49:45;18.25;;;16.30;;
20012;SDS011;76844;42.852;23.042;2024-03-25T07:52:14;14.82;;;9.82;;
20012;SDS011;76844;42.852;23.042;2024-03-25T07:54:41;12.27;;;9.63;;
20012;SDS011;76844;42.852;23.042;2024-03-25T07:57:08;9.52;;;8.52;;
20012;SDS011;76844;42.852;23.042;2024-03-25T07:59:36;12.60;;;9.63;;
20012;SDS011;76844;42.852;23.042;2024-03-25T08:02:03;14.38;;;8.95;;
20012;SDS011;76844;42.852;23.042;2024-03-25T08:04:31;12.48;;;9.40;;
20012;SDS011;76844;42.852;23.042;2024-03-25T08:06:58;13.15;;;9.20;;
20012;SDS011;76844;42.852;23.042;2024-03-25T08:09:27;15.32;;;10.73;;
20012;SDS011;76844;42.852;23.042;2024-03-25T08:11:54;11.02;;;9.55;;
20012;SDS011;76844;42.852;23.042;2024-03-25T08:14:21;16.05;;;9.45;;
20012;SDS011;76844;42.852;23.042;2024-03-25T08:16:49;12.88;;;9.77;;
20012;SDS011;76844;42.852;23.042;2024-03-25T08:19:16;11.95;;;8.93;;
20012;SDS011;76844;42.852;23.042;2024-03-25T08:21:43;10.02;;;8.98;;
20012;SDS011;76844;42.852;23.042;2024-03-25T08:24:10;10.80;;;8.73;;
20012;SDS011;76844;42.852;23.042;2024-03-25T08:26:41;10.25;;;8.45;;
20012;SDS011;76844;42.852;23.042;2024-03-25T08:29:09;15.80;;;9.68;;
20012;SDS011;76844;42.852;23.042;2024-03-25T08:31:40;12.65;;;8.57;;
20012;SDS011;76844;42.852;23.042;2024-03-25T08:34:09;12.00;;;7.95;;
20012;SDS011;76844;42.852;23.042;2024-03-25T08:36:36;14.05;;;9.25;;
20012;SDS011;76844;42.852;23.042;2024-03-25T08:39:03;10.52;;;8.35;;
20012;SDS011;76844;42.852;23.042;2024-03-25T08:41:30;14.18;;;8.55;;
20012;SDS011;76844;42.852;23.042;2024-03-25T08:43:59;12.48;;;8.68;;
20012;SDS011;76844;42.852;23.042;2024-03-25T08:46:29;11.40;;;8.02;;
20012;SDS011;76844;42.852;23.042;2024-03-25T08:48:56;12.23;;;9.02;;
20012;SDS011;76844;42.852;23.042;2024-03-25T08:51:23;10.55;;;8.38;;
20012;SDS011;76844;42.852;23.042;2024-03-25T08:53:51;13.50;;;9.65;;
20012;SDS011;76844;42.852;23.042;2024-03-25T08:56:18;12.10;;;8.50;;
20012;SDS011;76844;42.852;23.042;2024-03-25T08:58:45;9.55;;;7.55;;
20012;SDS011;76844;42.852;23.042;2024-03-25T09:01:13;9.57;;;8.10;;
20012;SDS011;76844;42.852;23.042;2024-03-25T09:03:41;9.00;;;7.90;;
20012;SDS011;76844;42.852;23.042;2024-03-25T09:06:09;9.65;;;8.15;;
20012;SDS011;76844;42.852;23.042;2024-03-25T09:08:38;11.57;;;8.57;;
20012;SDS011;76844;42.852;23.042;2024-03-25T09:11:20;11.52;;;9.00;;
20012;SDS011;76844;42.852;23.042;2024-03-25T09:13:47;15.60;;;8.48;;
20012;SDS011;76844;42.852;23.042;2024-03-25T09:16:15;12.23;;;9.90;;
20012;SDS011;76844;42.852;23.042;2024-03-25T09:18:43;11.23;;;8.23;;
20012;SDS011;76844;42.852;23.042;2024-03-25T09:21:10;13.02;;;8.88;;
20012;SDS011;76844;42.852;23.042;2024-03-25T09:23:37;8.52;;;6.75;;
20012;SDS011;76844;42.852;23.042;2024-03-25T09:26:04;7.95;;;7.00;;
20012;SDS011;76844;42.852;23.042;2024-03-25T09:28:31;9.77;;;7.63;;
20012;SDS011;76844;42.852;23.042;2024-03-25T09:31:02;9.65;;;7.10;;
20012;SDS011;76844;42.852;23.042;2024-03-25T09:33:31;8.23;;;7.30;;
20012;SDS011;76844;42.852;23.042;2024-03-25T09:36:00;11.90;;;7.47;;
20012;SDS011;76844;42.852;23.042;2024-03-25T09:38:27;10.50;;;7.32;;
20012;SDS011;76844;42.852;23.042;2024-03-25T09:40:55;7.72;;;6.38;;
20012;SDS011;76844;42.852;23.042;2024-03-25T09:43:25;9.40;;;8.02;;
20012;SDS011;76844;42.852;23.042;2024-03-25T09:45:58;9.23;;;6.35;;
20012;SDS011;76844;42.852;23.042;2024-03-25T09:48:26;10.95;;;5.85;;
20012;SDS011;76844;42.852;23.042;2024-03-25T09:50:56;7.97;;;5.47;;
20012;SDS011;76844;42.852;23.042;2024-03-25T09:53:23;6.15;;;5.47;;
20012;SDS011;76844;42.852;23.042;2024-03-25T09:55:50;6.72;;;5.13;;
20012;SDS011;76844;42.852;23.042;2024-03-25T09:58:18;7.38;;;5.85;;
20012;SDS011;76844;42.852;23.042;2024-03-25T10:00:46;5.05;;;4.55;;
20012;SDS011;76844;42.852;23.042;2024-03-25T10:03:14;7.10;;;5.20;;
20012;SDS011;76844;42.852;23.042;2024-03-25T10:05:41;9.77;;;5.57;;
20012;SDS011;76844;42.852;23.042;2024-03-25T10:08:10;8.20;;;5.15;;
20012;SDS011;76844;42.852;23.042;2024-03-25T10:10:37;10.93;;;4.82;;
20012;SDS011;76844;42.852;23.042;2024-03-25T10:13:04;10.40;;;6.82;;
20012;SDS011;76844;42.852;23.042;2024-03-25T10:15:33;6.35;;;5.38;;
20012;SDS011;76844;42.852;23.042;2024-03-25T10:18:00;12.13;;;6.32;;
20012;SDS011;76844;42.852;23.042;2024-03-25T10:20:27;11.02;;;5.90;;
20012;SDS011;76844;42.852;23.042;2024-03-25T10:22:55;9.15;;;5.88;;
20012;SDS011;76844;42.852;23.042;2024-03-25T10:25:25;8.52;;;5.50;;
20012;SDS011;76844;42.852;23.042;2024-03-25T10:27:53;8.20;;;5.50;;
20012;SDS011;76844;42.852;23.042;2024-03-25T10:30:21;7.13;;;5.95;;
20012;SDS011;76844;42.852;23.042;2024-03-25T10:32:58;12.90;;;5.65;;
20012;SDS011;76844;42.852;23.042;2024-03-25T10:35:26;5.70;;;5.15;;
20012;SDS011;76844;42.852;23.042;2024-03-25T10:37:59;7.53;;;4.90;;
20012;SDS011;76844;42.852;23.042;2024-03-25T10:40:30;7.57;;;6.18;;
20012;SDS011;76844;42.852;23.042;2024-03-25T10:43:00;7.88;;;4.82;;
20012;SDS011;76844;42.852;23.042;2024-03-25T10:45:29;10.82;;;6.53;;
20012;SDS011;76844;42.852;23.042;2024-03-25T10:47:57;8.65;;;7.03;;
20012;SDS011;76844;42.852;23.042;2024-03-25T10:50:26;12.50;;;8.75;;
20012;SDS011;76844;42.852;23.042;2024-03-25T10:52:56;22.13;;;13.10;;
20012;SDS011;76844;42.852;23.042;2024-03-25T10:55:24;19.52;;;13.38;;
20012;SDS011;76844;42.852;23.042;2024-03-25T10:57:55;7.68;;;6.30;;
20012;SDS011;76844;42.852;23.042;2024-03-25T11:00:23;11.90;;;8.65;;
20012;SDS011;76844;42.852;23.042;2024-03-25T11:02:50;7.05;;;6.30;;
20012;SDS011;76844;42.852;23.042;2024-03-25T11:05:18;11.48;;;8.55;;
20012;SDS011;76844;42.852;23.042;2024-03-25T11:07:46;11.00;;;8.27;;
20012;SDS011;76844;42.852;23.042;2024-03-25T11:10:13;8.38;;;6.45;;
20012;SDS011;76844;42.852;23.042;2024-03-25T11:12:43;7.47;;;6.38;;
20012;SDS011;76844;42.852;23.042;2024-03-25T11:15:11;7.68;;;6.85;;
20012;SDS011;76844;42.852;23.042;2024-03-25T11:17:49;6.80;;;5.20;;
20012;SDS011;76844;42.852;23.042;2024-03-25T11:20:17;8.30;;;4.97;;
20012;SDS011;76844;42.852;23.042;2024-03-25T11:22:48;6.97;;;4.53;;
20012;SDS011;76844;42.852;23.042;2024-03-25T11:25:15;8.45;;;4.55;;
20012;SDS011;76844;42.852;23.042;2024-03-25T11:27:44;6.43;;;4.07;;
20012;SDS011;76844;42.852;23.042;2024-03-25T11:30:13;8.35;;;5.55;;
20012;SDS011;76844;42.852;23.042;2024-03-25T11:32:45;12.32;;;6.00;;
20012;SDS011;76844;42.852;23.042;2024-03-25T11:35:16;12.25;;;9.18;;
20012;SDS011;76844;42.852;23.042;2024-03-25T11:37:44;9.70;;;5.82;;
20012;SDS011;76844;42.852;23.042;2024-03-25T11:40:12;8.10;;;5.00;;
20012;SDS011;76844;42.852;23.042;2024-03-25T11:42:40;13.23;;;6.53;;
20012;SDS011;76844;42.852;23.042;2024-03-25T11:45:14;7.05;;;4.85;;
20012;SDS011;76844;42.852;23.042;2024-03-25T11:47:42;6.30;;;5.03;;
20012;SDS011;76844;42.852;23.042;2024-03-25T11:50:09;7.20;;;4.22;;
20012;SDS011;76844;42.852;23.042;2024-03-25T11:52:38;5.00;;;4.40;;
20012;SDS011;76844;42.852;23.042;2024-03-25T11:55:06;5.57;;;4.15;;
20012;SDS011;76844;42.852;23.042;2024-03-25T11:57:34;7.28;;;4.20;;
20012;SDS011;76844;42.852;23.042;2024-03-25T12:00:02;6.28;;;4.55;;
20012;SDS011;76844;42.852;23.042;2024-03-25T12:02:43;7.60;;;4.85;;
20012;SDS011;76844;42.852;23.042;2024-03-25T12:05:14;5.43;;;3.67;;
20012;SDS011;76844;42.852;23.042;2024-03-25T12:07:41;5.35;;;3.67;;
20012;SDS011;76844;42.852;23.042;2024-03-25T12:10:08;8.10;;;4.28;;
20012;SDS011;76844;42.852;23.042;2024-03-25T12:12:55;6.15;;;3.80;;
20012;SDS011;76844;42.852;23.042;2024-03-25T12:15:22;4.38;;;3.40;;
20012;SDS011;76844;42.852;23.042;2024-03-25T12:17:51;5.28;;;4.65;;
20012;SDS011;76844;42.852;23.042;2024-03-25T12:20:22;6.97;;;4.73;;
20012;SDS011;76844;42.852;23.042;2024-03-25T12:22:49;9.60;;;6.13;;
20012;SDS011;76844;42.852;23.042;2024-03-25T12:25:18;6.15;;;4.65;;
20012;SDS011;76844;42.852;23.042;2024-03-25T12:27:46;9.20;;;6.25;;
20012;SDS011;76844;42.852;23.042;2024-03-25T12:30:13;7.18;;;5.65;;
20012;SDS011;76844;42.852;23.042;2024-03-25T12:32:42;7.50;;;4.97;;
20012;SDS011;76844;42.852;23.042;2024-03-25T12:35:12;11.35;;;6.93;;
20012;SDS011;76844;42.852;23.042;2024-03-25T12:37:40;12.43;;;5.78;;
20012;SDS011;76844;42.852;23.042;2024-03-25T12:40:09;10.45;;;6.28;;
20012;SDS011;76844;42.852;23.042;2024-03-25T12:42:37;14.05;;;6.05;;
20012;SDS011;76844;42.852;23.042;2024-03-25T12:45:05;8.25;;;4.82;;
20012;SDS011;76844;42.852;23.042;2024-03-25T12:47:33;6.35;;;4.97;;
20012;SDS011;76844;42.852;23.042;2024-03-25T12:50:00;6.32;;;4.65;;
20012;SDS011;76844;42.852;23.042;2024-03-25T12:52:30;5.03;;;4.55;;
20012;SDS011;76844;42.852;23.042;2024-03-25T12:54:57;5.57;;;4.80;;
20012;SDS011;76844;42.852;23.042;2024-03-25T12:57:24;4.82;;;3.83;;
20012;SDS011;76844;42.852;23.042;2024-03-25T12:59:51;7.03;;;4.40;;
20012;SDS011;76844;42.852;23.042;2024-03-25T13:02:18;8.43;;;3.80;;
20012;SDS011;76844;42.852;23.042;2024-03-25T13:04:46;6.82;;;3.92;;
20012;SDS011;76844;42.852;23.042;2024-03-25T13:07:13;5.38;;;3.63;;
20012;SDS011;76844;42.852;23.042;2024-03-25T13:09:42;3.42;;;3.13;;
20012;SDS011;76844;42.852;23.042;2024-03-25T13:12:09;3.33;;;3.00;;
20012;SDS011;76844;42.852;23.042;2024-03-25T13:14:36;5.03;;;3.80;;
20012;SDS011;76844;42.852;23.042;2024-03-25T13:17:04;7.60;;;4.28;;
20012;SDS011;76844;42.852;23.042;2024-03-25T13:19:31;4.35;;;3.70;;
20012;SDS011;76844;42.852;23.042;2024-03-25T13:21:59;5.90;;;3.00;;
20012;SDS011;76844;42.852;23.042;2024-03-25T13:24:26;6.28;;;3.20;;
20012;SDS011;76844;42.852;23.042;2024-03-25T13:26:55;15.50;;;6.32;;
20012;SDS011;76844;42.852;23.042;2024-03-25T13:29:22;7.57;;;3.88;;
20012;SDS011;76844;42.852;23.042;2024-03-25T13:31:49;15.52;;;3.78;;
20012;SDS011;76844;42.852;23.042;2024-03-25T13:34:17;7.25;;;2.67;;
20012;SDS011;76844;42.852;23.042;2024-03-25T13:36:44;4.75;;;4.25;;
20012;SDS011;76844;42.852;23.042;2024-03-25T13:39:11;4.65;;;3.20;;
20012;SDS011;76844;42.852;23.042;2024-03-25T13:41:39;8.30;;;6.82;;
20012;SDS011;76844;42.852;23.042;2024-03-25T13:44:08;5.50;;;3.00;;
20012;SDS011;76844;42.852;23.042;2024-03-25T13:46:35;5.80;;;2.83;;
20012;SDS011;76844;42.852;23.042;2024-03-25T13:49:02;8.57;;;3.47;;
20012;SDS011;76844;42.852;23.042;2024-03-25T13:51:30;11.10;;;4.45;;
20012;SDS011;76844;42.852;23.042;2024-03-25T13:53:58;6.32;;;3.38;;
20012;SDS011;76844;42.852;23.042;2024-03-25T13:56:25;7.07;;;3.50;;
20012;SDS011;76844;42.852;23.042;2024-03-25T13:58:52;8.52;;;5.50;;
20012;SDS011;76844;42.852;23.042;2024-03-25T14:01:21;12.85;;;7.00;;
20012;SDS011;76844;42.852;23.042;2024-03-25T14:03:48;8.80;;;5.22;;
20012;SDS011;76844;42.852;23.042;2024-03-25T14:06:16;16.38;;;7.50;;
20012;SDS011;76844;42.852;23.042;2024-03-25T14:08:43;15.27;;;6.45;;
20012;SDS011;76844;42.852;23.042;2024-03-25T14:11:11;9.45;;;4.72;;
20012;SDS011;76844;42.852;23.042;2024-03-25T14:13:39;12.00;;;6.28;;
20012;SDS011;76844;42.852;23.042;2024-03-25T14:16:06;19.13;;;8.32;;
20012;SDS011;76844;42.852;23.042;2024-03-25T14:18:35;11.52;;;5.80;;
20012;SDS011;76844;42.852;23.042;2024-03-25T14:21:03;14.57;;;6.43;;
20012;SDS011;76844;42.852;23.042;2024-03-25T14:23:31;17.52;;;7.30;;
20012;SDS011;76844;42.852;23.042;2024-03-25T14:25:58;24.25;;;8.98;;
20012;SDS011;76844;42.852;23.042;2024-03-25T14:28:25;17.83;;;8.38;;
20012;SDS011;76844;42.852;23.042;2024-03-25T14:30:53;8.63;;;6.00;;
20012;SDS011;76844;42.852;23.042;2024-03-25T14:33:20;8.80;;;5.07;;